Time;durP1;ratioP1;P1;durP2;ratioP2;P2;SDS_P1;SDS_P2;PMS_P1;PMS_P2;Temp;Humidity;BMP_temperature;BMP_pressure;BME280_temperature;BME280_humidity;BME280_pressure;Samples;Min_cycle;Max_cycle;Signal;HPM_P1;HPM_P2
2022/09/30 00:01:46;;;;;;;0.10;0.10;;;10.40;99.90;;;;;;5022060;28;20057;-71
2022/09/30 00:04:20;;;;;;;0.10;0.10;;;10.30;99.90;;;;;;5033861;28;20142;-71
2022/09/30 00:06:46;;;;;;;0.10;0.10;;;10.30;99.90;;;;;;5035643;28;20112;-71
2022/09/30 00:09:12;;;;;;;0.20;0.20;;;10.40;99.90;;;;;;5052098;28;20052;-71
2022/09/30 00:11:39;;;;;;;0.55;0.55;;;10.40;99.90;;;;;;5032637;28;20053;-71
2022/09/30 00:14:07;;;;;;;0.10;0.10;;;10.40;99.90;;;;;;5028071;28;20396;-71
2022/09/30 00:16:35;;;;;;;0.00;0.00;;;10.30;99.90;;;;;;5023578;28;20049;-71
2022/09/30 00:19:03;;;;;;;0.10;0.10;;;10.30;99.90;;;;;;5015015;28;20038;-71
2022/09/30 00:21:29;;;;;;;1.13;0.57;;;10.30;99.90;;;;;;5036521;28;20449;-71
2022/09/30 00:23:55;;;;;;;0.10;0.10;;;10.20;99.90;;;;;;5044659;28;20069;-71
2022/09/30 00:26:22;;;;;;;0.10;0.10;;;10.30;99.90;;;;;;5030918;28;20042;-71
2022/09/30 00:28:53;;;;;;;0.00;0.00;;;10.30;99.90;;;;;;5025554;28;20515;-71
2022/09/30 00:31:20;;;;;;;0.10;0.10;;;10.20;99.90;;;;;;5045440;28;20045;-71
2022/09/30 00:36:45;;;;;;;0.10;0.10;;;10.20;99.90;;;;;;5038467;28;20049;-71
2022/09/30 00:39:20;;;;;;;0.10;0.10;;;10.10;99.90;;;;;;5030463;28;20131;-71
2022/09/30 00:41:50;;;;;;;0.10;0.10;;;10.10;99.90;;;;;;5027318;28;20034;-71
2022/09/30 00:44:51;;;;;;;0.10;0.10;;;10.10;99.90;;;;;;5024322;28;20056;-71
2022/09/30 00:47:32;;;;;;;0.10;0.10;;;10.00;99.90;;;;;;5039091;28;20515;-70
2022/09/30 00:50:08;;;;;;;0.40;0.40;;;10.00;99.90;;;;;;5033806;28;20040;-71
2022/09/30 00:52:35;;;;;;;0.10;0.10;;;10.00;99.90;;;;;;5047223;28;20061;-71
2022/09/30 00:55:06;;;;;;;0.10;0.10;;;10.00;99.90;;;;;;5032151;28;20548;-71
2022/09/30 00:57:33;;;;;;;0.10;0.10;;;9.90;99.90;;;;;;5030734;28;20051;-71
2022/09/30 01:00:00;;;;;;;0.10;0.10;;;9.90;99.90;;;;;;5014480;28;20052;-70
2022/09/30 01:02:25;;;;;;;0.00;0.00;;;9.90;99.90;;;;;;5021980;28;20053;-71
2022/09/30 01:04:53;;;;;;;0.10;0.10;;;9.90;99.90;;;;;;5028867;28;20459;-71
2022/09/30 01:07:20;;;;;;;0.10;0.10;;;9.80;99.90;;;;;;5037316;28;20053;-71
2022/09/30 01:09:47;;;;;;;0.10;0.10;;;9.80;99.90;;;;;;5038855;28;20038;-71
2022/09/30 01:12:19;;;;;;;0.00;0.00;;;9.90;99.90;;;;;;5033087;28;20049;-70
2022/09/30 01:14:47;;;;;;;0.10;0.10;;;9.90;99.90;;;;;;5020398;28;20052;-71
2022/09/30 01:17:37;;;;;;;0.10;0.10;;;9.90;99.90;;;;;;5038902;28;20336;-70
2022/09/30 01:20:29;;;;;;;0.88;0.88;;;9.80;99.90;;;;;;5014764;28;20049;-71
2022/09/30 01:23:03;;;;;;;0.10;0.10;;;9.90;99.90;;;;;;5031010;28;20048;-70
2022/09/30 01:25:47;;;;;;;0.38;0.38;;;9.90;99.90;;;;;;5028649;28;20049;-70
2022/09/30 01:28:21;;;;;;;0.10;0.10;;;9.80;99.90;;;;;;5031125;28;20073;-71
2022/09/30 01:31:08;;;;;;;0.10;0.10;;;9.80;99.90;;;;;;5021294;28;20076;-71
2022/09/30 01:33:49;;;;;;;0.10;0.10;;;9.70;99.90;;;;;;5030143;28;20513;-71
2022/09/30 01:36:42;;;;;;;0.03;0.03;;;9.80;99.90;;;;;;5038321;28;20045;-71
2022/09/30 01:39:27;;;;;;;0.35;0.35;;;9.80;99.90;;;;;;5015382;28;20041;-70
2022/09/30 01:42:32;;;;;;;0.30;0.30;;;9.80;99.90;;;;;;5028416;28;20128;-70
2022/09/30 01:45:02;;;;;;;;;;;9.60;99.90;;;;;;5013793;28;20050;-70
2022/09/30 01:47:30;;;;;;;0.00;0.00;;;9.70;99.90;;;;;;5038417;28;19955;-70
2022/09/30 01:50:05;;;;;;;0.10;0.10;;;9.70;99.90;;;;;;5037516;28;20464;-70
2022/09/30 01:52:55;;;;;;;0.38;0.38;;;9.70;99.90;;;;;;5030522;28;20037;-70
2022/09/30 01:55:50;;;;;;;0.20;0.20;;;9.70;99.90;;;;;;5033445;28;20049;-71
2022/09/30 01:58:27;;;;;;;0.10;0.10;;;9.60;99.90;;;;;;5013044;28;20053;-70
2022/09/30 02:00:58;;;;;;;0.10;0.10;;;9.60;99.90;;;;;;5037496;28;20509;-71
2022/09/30 02:03:33;;;;;;;0.20;0.20;;;9.70;99.90;;;;;;5024060;28;20102;-70
2022/09/30 02:06:10;;;;;;;0.20;0.20;;;9.80;99.90;;;;;;5034328;28;20046;-70
2022/09/30 02:08:59;;;;;;;0.10;0.10;;;9.80;99.90;;;;;;5029281;28;20088;-70
2022/09/30 02:11:28;;;;;;;4.28;0.95;;;9.80;99.90;;;;;;5028640;28;20049;-70
2022/09/30 02:13:54;;;;;;;0.10;0.10;;;9.80;99.90;;;;;;5028232;28;20115;-70
2022/09/30 02:16:26;;;;;;;0.10;0.10;;;9.80;99.90;;;;;;5040830;28;20124;-70
2022/09/30 02:18:59;;;;;;;0.10;0.10;;;9.90;99.90;;;;;;5031237;28;20048;-71
2022/09/30 02:21:32;;;;;;;0.10;0.10;;;9.90;99.90;;;;;;5025413;28;20152;-70
2022/09/30 02:24:06;;;;;;;0.10;0.10;;;9.80;99.90;;;;;;5028768;28;20117;-70
2022/09/30 02:26:38;;;;;;;0.10;0.10;;;9.80;99.90;;;;;;5024816;28;20046;-70
2022/09/30 02:29:09;;;;;;;0.10;0.10;;;9.70;99.90;;;;;;5027855;28;20041;-70
2022/09/30 02:31:40;;;;;;;0.00;0.00;;;9.70;99.90;;;;;;5030764;28;20037;-70
2022/09/30 02:34:36;;;;;;;0.10;0.10;;;9.70;99.90;;;;;;5026985;28;20050;-70
2022/09/30 02:37:14;;;;;;;0.00;0.00;;;9.70;99.90;;;;;;5041288;28;20042;-70
2022/09/30 02:40:02;;;;;;;0.50;0.50;;;9.60;99.90;;;;;;5021709;28;20046;-70
2022/09/30 02:42:29;;;;;;;0.10;0.10;;;9.60;99.90;;;;;;5016349;28;20054;-70
2022/09/30 02:45:07;;;;;;;0.00;0.00;;;9.70;99.90;;;;;;5030629;28;20388;-70
2022/09/30 02:47:43;;;;;;;0.10;0.10;;;9.70;99.90;;;;;;5025610;28;20116;-70
2022/09/30 02:50:26;;;;;;;0.20;0.20;;;9.60;99.90;;;;;;5012170;28;20053;-70
2022/09/30 02:53:20;;;;;;;0.10;0.10;;;9.60;99.90;;;;;;5035878;28;20512;-70
2022/09/30 02:55:48;;;;;;;;;;;9.50;99.90;;;;;;5013264;28;20489;-71
2022/09/30 02:58:20;;;;;;;0.10;0.10;;;9.50;99.90;;;;;;5042051;28;19927;-71
2022/09/30 03:00:47;;;;;;;0.10;0.10;;;9.60;99.90;;;;;;5043840;28;20052;-71
2022/09/30 03:03:44;;;;;;;0.15;0.15;;;9.60;99.90;;;;;;5029578;28;20160;-71
2022/09/30 03:06:10;;;;;;;0.10;0.10;;;9.60;99.90;;;;;;5023941;28;20463;-71
2022/09/30 03:08:36;;;;;;;0.10;0.10;;;9.50;99.90;;;;;;5044982;28;20386;-71
2022/09/30 03:11:03;;;;;;;0.10;0.10;;;9.50;99.90;;;;;;5046821;28;20056;-70
2022/09/30 03:13:38;;;;;;;0.10;0.10;;;9.50;99.90;;;;;;5018989;28;20536;-71
2022/09/30 03:16:11;;;;;;;0.00;0.00;;;9.50;99.90;;;;;;5021751;28;20541;-71
2022/09/30 03:19:11;;;;;;;0.20;0.20;;;9.50;99.90;;;;;;5021309;28;20061;-70
2022/09/30 03:21:43;;;;;;;0.00;0.00;;;9.50;99.90;;;;;;5038410;28;20057;-70
2022/09/30 03:24:17;;;;;;;0.10;0.10;;;9.40;99.90;;;;;;5032297;28;20049;-70
2022/09/30 03:27:03;;;;;;;0.10;0.10;;;9.40;99.90;;;;;;5033638;28;20393;-70
2022/09/30 03:29:40;;;;;;;0.28;0.28;;;9.40;99.90;;;;;;5027410;28;20104;-70
2022/09/30 03:32:47;;;;;;;0.10;0.10;;;9.30;99.90;;;;;;5028223;28;20072;-70
2022/09/30 03:35:25;;;;;;;0.10;0.10;;;9.20;99.90;;;;;;5029548;28;20087;-70
2022/09/30 03:37:50;;;;;;;0.10;0.10;;;9.20;99.90;;;;;;5029732;28;20103;-70
2022/09/30 03:40:19;;;;;;;0.10;0.10;;;9.20;99.90;;;;;;5040620;28;20500;-70
2022/09/30 03:42:51;;;;;;;0.10;0.10;;;9.30;99.90;;;;;;5046483;28;20161;-71
2022/09/30 03:45:25;;;;;;;0.10;0.10;;;9.40;99.90;;;;;;5032052;28;20049;-71
2022/09/30 03:47:55;;;;;;;0.10;0.10;;;9.40;99.90;;;;;;5026152;28;20116;-70
2022/09/30 03:50:24;;;;;;;0.10;0.10;;;9.40;99.90;;;;;;5043597;28;20477;-71
2022/09/30 03:52:50;;;;;;;0.10;0.10;;;9.40;99.90;;;;;;5034196;28;20040;-70
2022/09/30 03:55:18;;;;;;;0.43;0.43;;;9.40;99.90;;;;;;5048615;28;20052;-71
2022/09/30 03:57:44;;;;;;;0.10;0.10;;;9.40;99.90;;;;;;5029774;28;20046;-70
2022/09/30 04:00:11;;;;;;;0.10;0.10;;;9.30;99.90;;;;;;5030052;28;20056;-70
2022/09/30 04:02:37;;;;;;;0.10;0.10;;;9.20;99.90;;;;;;5033108;28;20536;-71
2022/09/30 04:05:04;;;;;;;3.92;0.65;;;9.10;99.90;;;;;;5042378;28;20037;-71
2022/09/30 04:07:31;;;;;;;0.10;0.10;;;9.10;99.90;;;;;;5014982;28;20050;-70
2022/09/30 04:09:56;;;;;;;0.00;0.00;;;8.90;99.90;;;;;;5045893;28;20515;-71
2022/09/30 04:12:22;;;;;;;0.10;0.10;;;8.90;99.90;;;;;;5043342;28;20045;-70
2022/09/30 04:14:48;;;;;;;0.10;0.10;;;8.70;99.90;;;;;;5013612;28;20200;-71
2022/09/30 04:17:14;;;;;;;0.10;0.10;;;8.70;99.90;;;;;;5018146;28;20503;-71
2022/09/30 04:19:39;;;;;;;0.00;0.00;;;8.80;99.90;;;;;;5031545;28;20052;-70
2022/09/30 04:22:08;;;;;;;0.22;0.22;;;8.90;99.90;;;;;;5028012;28;20042;-70
2022/09/30 04:24:34;;;;;;;0.10;0.10;;;8.80;99.90;;;;;;5030972;28;21000;-70
2022/09/30 04:27:00;;;;;;;0.10;0.10;;;8.90;99.90;;;;;;5015995;28;20049;-70
2022/09/30 04:29:26;;;;;;;0.10;0.10;;;9.00;99.90;;;;;;5032005;28;20486;-70
2022/09/30 04:31:52;;;;;;;0.00;0.00;;;9.10;99.90;;;;;;5033593;28;20568;-71
2022/09/30 04:34:17;;;;;;;0.10;0.10;;;9.10;99.90;;;;;;5035672;28;20132;-70
2022/09/30 04:36:43;;;;;;;0.10;0.10;;;9.10;99.90;;;;;;5031940;28;20037;-70
2022/09/30 04:39:09;;;;;;;0.10;0.10;;;9.10;99.90;;;;;;5031080;28;20603;-70
2022/09/30 04:41:35;;;;;;;0.10;0.10;;;9.10;99.90;;;;;;5027954;28;20042;-70
2022/09/30 04:44:05;;;;;;;0.10;0.10;;;9.10;99.90;;;;;;5043408;28;20456;-71
2022/09/30 04:46:32;;;;;;;0.00;0.00;;;9.10;99.90;;;;;;5038698;28;20053;-70
2022/09/30 04:48:58;;;;;;;0.10;0.10;;;9.10;99.90;;;;;;5031306;28;20393;-71
2022/09/30 04:51:23;;;;;;;0.13;0.13;;;9.00;99.90;;;;;;5036062;28;20045;-71
2022/09/30 04:53:49;;;;;;;0.00;0.00;;;9.00;99.90;;;;;;5038564;28;20110;-71
2022/09/30 04:56:15;;;;;;;0.00;0.00;;;9.10;99.90;;;;;;5031115;28;20128;-71
2022/09/30 04:58:42;;;;;;;0.10;0.10;;;9.00;99.90;;;;;;5031351;28;20087;-70
2022/09/30 05:01:13;;;;;;;0.00;0.00;;;9.10;99.90;;;;;;5037360;28;20043;-71
2022/09/30 05:03:39;;;;;;;0.00;0.00;;;9.00;99.90;;;;;;5028544;28;20064;-71
2022/09/30 05:06:05;;;;;;;0.10;0.10;;;9.00;99.90;;;;;;5030019;28;20041;-71
2022/09/30 05:08:34;;;;;;;0.10;0.10;;;9.00;99.90;;;;;;5028927;28;20049;-71
2022/09/30 05:11:04;;;;;;;0.10;0.10;;;9.00;99.90;;;;;;5022612;28;20393;-70
2022/09/30 05:13:33;;;;;;;0.00;0.00;;;9.00;99.90;;;;;;5021375;28;20056;-70
2022/09/30 05:15:59;;;;;;;0.00;0.00;;;9.00;99.90;;;;;;5024433;28;20045;-70
2022/09/30 05:18:27;;;;;;;0.10;0.10;;;8.80;99.90;;;;;;5030264;28;20516;-70
2022/09/30 05:20:54;;;;;;;0.20;0.20;;;8.80;99.90;;;;;;5029130;28;20517;-70
2022/09/30 05:23:20;;;;;;;0.10;0.10;;;8.70;99.90;;;;;;5033098;28;20041;-70
2022/09/30 05:25:46;;;;;;;0.10;0.10;;;8.70;99.90;;;;;;5029096;28;20045;-70
2022/09/30 05:28:13;;;;;;;0.10;0.10;;;8.60;99.90;;;;;;5020531;28;20042;-70
2022/09/30 05:30:40;;;;;;;0.10;0.10;;;8.60;99.90;;;;;;5019745;28;20057;-70
2022/09/30 05:33:06;;;;;;;0.00;0.00;;;8.60;99.90;;;;;;5041771;28;20397;-70
2022/09/30 05:35:33;;;;;;;0.00;0.00;;;8.60;99.90;;;;;;5032852;28;20049;-70
2022/09/30 05:37:59;;;;;;;0.10;0.10;;;8.60;99.90;;;;;;5037056;28;20412;-70
2022/09/30 05:40:25;;;;;;;0.10;0.10;;;8.60;99.90;;;;;;5032203;28;20052;-70
2022/09/30 05:42:50;;;;;;;0.30;0.30;;;8.60;99.90;;;;;;5045687;28;20041;-70
2022/09/30 05:45:16;;;;;;;0.10;0.10;;;8.60;99.90;;;;;;5028821;28;20405;-70
2022/09/30 05:47:42;;;;;;;0.00;0.00;;;8.60;99.90;;;;;;5017827;28;20045;-71
2022/09/30 05:50:07;;;;;;;0.10;0.10;;;8.60;99.90;;;;;;5031101;28;20047;-70
2022/09/30 05:52:33;;;;;;;0.35;0.35;;;8.60;99.90;;;;;;5036728;28;20045;-70
2022/09/30 05:55:00;;;;;;;0.03;0.03;;;8.60;99.90;;;;;;5042122;28;20049;-70
2022/09/30 05:57:29;;;;;;;0.10;0.10;;;8.60;99.90;;;;;;5039659;28;20482;-71
2022/09/30 05:59:56;;;;;;;0.00;0.00;;;8.70;99.90;;;;;;5041297;28;20052;-71
2022/09/30 06:02:22;;;;;;;0.00;0.00;;;8.60;99.90;;;;;;5028879;28;20060;-71
2022/09/30 06:04:49;;;;;;;0.10;0.10;;;8.60;99.90;;;;;;5029441;28;20171;-70
2022/09/30 06:07:15;;;;;;;0.10;0.10;;;8.60;99.90;;;;;;5044631;28;20128;-71
2022/09/30 06:09:41;;;;;;;0.10;0.10;;;8.60;99.90;;;;;;5025047;28;20519;-71
2022/09/30 06:12:07;;;;;;;0.10;0.10;;;8.40;99.90;;;;;;5018700;28;20054;-70
2022/09/30 06:14:33;;;;;;;0.10;0.10;;;8.40;99.90;;;;;;5023657;28;20033;-70
2022/09/30 06:17:01;;;;;;;0.10;0.10;;;8.40;99.90;;;;;;5029026;28;20041;-70
2022/09/30 06:19:30;;;;;;;0.00;0.00;;;8.50;99.90;;;;;;5029096;28;20044;-69
2022/09/30 06:21:56;;;;;;;0.15;0.15;;;8.50;99.90;;;;;;5029335;28;20504;-69
2022/09/30 06:24:22;;;;;;;0.00;0.00;;;8.50;99.90;;;;;;5034896;28;20171;-70
2022/09/30 06:26:48;;;;;;;0.20;0.20;;;8.50;99.90;;;;;;5046063;28;20132;-69
2022/09/30 06:29:13;;;;;;;0.10;0.10;;;8.60;99.90;;;;;;5030189;28;20462;-70
2022/09/30 06:31:39;;;;;;;0.10;0.10;;;8.70;99.90;;;;;;5038812;28;20041;-70
2022/09/30 06:34:05;;;;;;;0.10;0.10;;;8.70;99.90;;;;;;5039193;28;20048;-70
2022/09/30 06:36:32;;;;;;;0.30;0.30;;;8.80;99.90;;;;;;5028182;28;20132;-70
2022/09/30 06:38:59;;;;;;;0.03;0.03;;;8.90;99.90;;;;;;5030264;28;20061;-70
2022/09/30 06:41:26;;;;;;;0.10;0.10;;;9.00;99.90;;;;;;5026867;28;20107;-70
2022/09/30 06:43:52;;;;;;;0.00;0.00;;;9.20;99.90;;;;;;5050614;28;20038;-70
2022/09/30 06:46:18;;;;;;;0.10;0.10;;;9.20;99.90;;;;;;5040586;28;20052;-70
2022/09/30 06:48:43;;;;;;;0.10;0.10;;;9.30;99.90;;;;;;5034213;28;20128;-70
2022/09/30 06:51:09;;;;;;;0.10;0.10;;;9.30;99.90;;;;;;5034524;28;20045;-70
2022/09/30 06:53:38;;;;;;;0.10;0.10;;;9.30;99.90;;;;;;5016060;28;20050;-71
2022/09/30 06:56:03;;;;;;;0.10;0.10;;;9.40;99.90;;;;;;5028202;28;20056;-71
2022/09/30 06:58:29;;;;;;;0.10;0.10;;;9.50;99.90;;;;;;5052126;28;20127;-71
2022/09/30 07:01:02;;;;;;;0.10;0.10;;;9.50;99.90;;;;;;5037077;28;20771;-71
2022/09/30 07:03:31;;;;;;;0.00;0.00;;;9.60;99.90;;;;;;5033003;28;20060;-70
2022/09/30 07:05:59;;;;;;;0.17;0.17;;;9.60;99.90;;;;;;5041161;28;20059;-71
2022/09/30 07:08:30;;;;;;;0.10;0.10;;;9.60;99.90;;;;;;5040750;28;20053;-70
2022/09/30 07:10:57;;;;;;;0.10;0.10;;;9.70;99.90;;;;;;5023794;28;20033;-71
2022/09/30 07:13:22;;;;;;;0.10;0.10;;;9.80;99.90;;;;;;5051030;28;20087;-70
2022/09/30 07:15:52;;;;;;;0.10;0.10;;;9.90;99.90;;;;;;5032338;28;20065;-70
2022/09/30 07:18:22;;;;;;;1.85;0.75;;;10.00;99.90;;;;;;5033834;28;20045;-70
2022/09/30 07:20:51;;;;;;;0.10;0.10;;;10.00;99.90;;;;;;5033614;28;20041;-70
2022/09/30 07:23:17;;;;;;;0.30;0.30;;;10.10;99.90;;;;;;5032676;28;20038;-70
2022/09/30 07:25:55;;;;;;;0.75;0.75;;;10.20;99.90;;;;;;5033887;28;20396;-70
2022/09/30 07:28:26;;;;;;;0.28;0.28;;;10.30;99.90;;;;;;5047480;28;20044;-70
2022/09/30 07:30:54;;;;;;;0.10;0.10;;;10.30;99.90;;;;;;5052878;28;20037;-70
2022/09/30 07:33:19;;;;;;;0.10;0.10;;;10.40;99.90;;;;;;5042627;28;20061;-70
2022/09/30 07:35:55;;;;;;;0.10;0.10;;;10.50;99.90;;;;;;5044450;28;20392;-70
2022/09/30 07:38:24;;;;;;;0.00;0.00;;;10.60;99.90;;;;;;5032583;28;20045;-70
2022/09/30 07:40:56;;;;;;;0.10;0.10;;;10.70;99.90;;;;;;5043274;28;20374;-70
2022/09/30 07:43:23;;;;;;;0.10;0.10;;;10.70;99.90;;;;;;5031511;28;20037;-73
2022/09/30 07:45:50;;;;;;;0.10;0.10;;;10.90;99.90;;;;;;5031714;28;20048;-71
2022/09/30 07:51:01;;;;;;;0.10;0.10;;;11.10;99.90;;;;;;5030836;28;20053;-71
2022/09/30 07:53:26;;;;;;;0.10;0.10;;;11.10;99.90;;;;;;5032664;28;20374;-71
2022/09/30 07:55:52;;;;;;;0.10;0.10;;;11.20;99.90;;;;;;5031902;28;20048;-71
2022/09/30 07:58:17;;;;;;;0.10;0.10;;;11.30;99.90;;;;;;5027076;28;20052;-71
2022/09/30 08:00:47;;;;;;;0.10;0.10;;;11.40;99.90;;;;;;5039730;28;20037;-71
2022/09/30 08:03:13;;;;;;;0.10;0.10;;;11.40;99.90;;;;;;5032779;28;20045;-71
2022/09/30 08:05:40;;;;;;;0.10;0.10;;;11.50;99.90;;;;;;5032494;28;20566;-71
2022/09/30 08:08:07;;;;;;;0.13;0.13;;;11.60;99.90;;;;;;5032420;28;20055;-72
2022/09/30 08:10:34;;;;;;;0.10;0.10;;;11.60;99.90;;;;;;5040016;28;20143;-71
2022/09/30 08:12:59;;;;;;;0.10;0.10;;;11.70;99.90;;;;;;5017743;28;20053;-71
2022/09/30 08:15:25;;;;;;;0.10;0.10;;;11.80;99.90;;;;;;5033117;28;20041;-72
2022/09/30 08:17:50;;;;;;;0.10;0.10;;;12.60;99.90;;;;;;5027906;28;20050;-73
2022/09/30 08:20:16;;;;;;;0.10;0.10;;;12.50;99.90;;;;;;5015140;28;20132;-71
2022/09/30 08:22:41;;;;;;;0.10;0.10;;;12.50;99.90;;;;;;5021001;28;20065;-71
2022/09/30 08:25:07;;;;;;;0.00;0.00;;;12.40;99.90;;;;;;5030604;28;20087;-71
2022/09/30 08:27:33;;;;;;;0.08;0.08;;;12.50;99.90;;;;;;5031835;28;20056;-71
2022/09/30 08:29:58;;;;;;;1.85;0.88;;;12.60;99.90;;;;;;5036013;28;20200;-71
2022/09/30 08:32:24;;;;;;;0.10;0.10;;;12.60;99.90;;;;;;5034271;28;20570;-71
2022/09/30 08:34:49;;;;;;;0.00;0.00;;;12.60;99.90;;;;;;5034861;28;20126;-71
2022/09/30 08:37:15;;;;;;;0.10;0.10;;;12.70;99.90;;;;;;5036780;28;20060;-71
2022/09/30 08:39:42;;;;;;;0.10;0.10;;;12.70;99.90;;;;;;5032458;28;20045;-71
2022/09/30 08:42:18;;;;;;;0.10;0.10;;;12.80;99.90;;;;;;5029401;28;20046;-72
2022/09/30 08:44:46;;;;;;;0.13;0.13;;;12.80;99.90;;;;;;5029673;28;20132;-72
2022/09/30 08:47:18;;;;;;;0.10;0.10;;;12.90;99.90;;;;;;5032795;28;20044;-72
2022/09/30 08:49:57;;;;;;;0.10;0.10;;;12.90;99.90;;;;;;5052272;28;20052;-72
2022/09/30 08:52:28;;;;;;;0.10;0.10;;;12.90;99.90;;;;;;5051349;28;20118;-72
2022/09/30 08:54:55;;;;;;;0.10;0.10;;;12.90;99.90;;;;;;5049962;28;20051;-72
2022/09/30 08:57:22;;;;;;;3.92;0.30;;;13.00;99.90;;;;;;5049270;28;20048;-72
2022/09/30 08:59:59;;;;;;;0.10;0.10;;;13.00;99.90;;;;;;5039055;28;20036;-73
2022/09/30 09:02:31;;;;;;;0.03;0.03;;;13.00;99.90;;;;;;5050971;28;20061;-72
2022/09/30 09:05:00;;;;;;;0.10;0.10;;;13.00;99.90;;;;;;5051271;28;20056;-73
2022/09/30 09:07:53;;;;;;;0.00;0.00;;;13.00;99.90;;;;;;5050969;28;20049;-73
2022/09/30 09:10:44;;;;;;;0.15;0.15;;;13.10;99.90;;;;;;5043721;28;20966;-72
2022/09/30 09:13:37;;;;;;;0.20;0.20;;;13.90;99.90;;;;;;5038688;28;20555;-73
2022/09/30 09:16:32;;;;;;;0.00;0.00;;;14.90;99.90;;;;;;5024178;28;20087;-72
2022/09/30 09:19:11;;;;;;;0.20;0.20;;;16.10;99.90;;;;;;5029566;28;20056;-72
2022/09/30 09:22:00;;;;;;;0.00;0.00;;;17.00;99.90;;;;;;5027615;28;20044;-72
2022/09/30 09:24:29;;;;;;;0.10;0.10;;;17.80;99.90;;;;;;5040222;28;20041;-72
2022/09/30 09:26:57;;;;;;;0.10;0.10;;;17.50;99.90;;;;;;5027992;28;20037;-72
2022/09/30 09:29:38;;;;;;;3.50;0.73;;;16.70;99.90;;;;;;5022910;28;20140;-73
2022/09/30 09:32:12;;;;;;;0.35;0.35;;;17.20;99.90;;;;;;5016104;28;20103;-73
2022/09/30 09:34:40;;;;;;;0.00;0.00;;;17.50;99.90;;;;;;5013063;28;20395;-73
2022/09/30 09:37:19;;;;;;;0.10;0.10;;;17.50;99.90;;;;;;5011612;28;20038;-72
2022/09/30 09:39:54;;;;;;;0.00;0.00;;;18.20;99.90;;;;;;5026699;28;20168;-71
2022/09/30 09:42:40;;;;;;;0.10;0.10;;;18.60;99.90;;;;;;5028591;28;20053;-71
2022/09/30 09:45:33;;;;;;;0.30;0.30;;;18.80;99.90;;;;;;5026336;28;20476;-72
2022/09/30 09:47:58;;;;;;;0.10;0.10;;;19.20;99.90;;;;;;5029534;28;20445;-72
2022/09/30 09:50:48;;;;;;;0.08;0.08;;;19.20;99.90;;;;;;5029908;28;20045;-72
2022/09/30 09:53:24;;;;;;;0.10;0.10;;;18.70;99.90;;;;;;5047076;28;20051;-73
2022/09/30 09:55:54;;;;;;;0.10;0.10;;;18.30;99.90;;;;;;5047737;28;20049;-71
2022/09/30 09:58:19;;;;;;;0.10;0.10;;;17.80;99.90;;;;;;5012799;28;20628;-72
2022/09/30 10:03:24;;;;;;;0.10;0.10;;;17.40;99.90;;;;;;5008048;28;20520;-72
2022/09/30 10:06:08;;;;;;;0.32;0.32;;;17.50;99.90;;;;;;5025818;28;20053;-72
2022/09/30 10:08:50;;;;;;;0.10;0.10;;;17.60;99.90;;;;;;5028089;28;20057;-71
2022/09/30 10:11:25;;;;;;;0.10;0.10;;;17.80;99.90;;;;;;5021840;28;20417;-72
2022/09/30 10:13:56;;;;;;;0.10;0.10;;;18.00;99.90;;;;;;5020077;28;20127;-72
2022/09/30 10:16:31;;;;;;;0.28;0.28;;;17.90;99.90;;;;;;5039823;28;20053;-72
2022/09/30 10:18:58;;;;;;;0.10;0.10;;;17.80;99.90;;;;;;5049254;28;20079;-72
2022/09/30 10:21:26;;;;;;;0.13;0.13;;;17.90;99.90;;;;;;5044357;28;20053;-72
2022/09/30 10:23:53;;;;;;;0.10;0.10;;;17.80;99.90;;;;;;5025023;28;20044;-72
2022/09/30 10:26:24;;;;;;;0.08;0.08;;;17.80;99.90;;;;;;5047619;28;20048;-72
2022/09/30 10:28:51;;;;;;;0.00;0.00;;;17.70;99.90;;;;;;5045330;28;20429;-73
2022/09/30 10:31:40;;;;;;;0.30;0.30;;;17.50;99.90;;;;;;5030776;28;20064;-73
2022/09/30 10:34:27;;;;;;;0.10;0.10;;;17.60;99.90;;;;;;5024830;28;20056;-72
2022/09/30 10:36:54;;;;;;;0.20;0.20;;;17.70;99.90;;;;;;5033713;28;20057;-73
2022/09/30 10:39:25;;;;;;;0.10;0.10;;;17.70;99.90;;;;;;5031254;28;20049;-73
2022/09/30 10:42:15;;;;;;;0.00;0.00;;;17.80;99.90;;;;;;5029750;28;20045;-73
2022/09/30 10:44:40;;;;;;;0.43;0.43;;;17.80;99.90;;;;;;5028143;28;20120;-73
2022/09/30 10:47:06;;;;;;;0.10;0.10;;;17.80;99.90;;;;;;5027417;28;20466;-74
2022/09/30 10:49:42;;;;;;;0.00;0.00;;;17.90;99.90;;;;;;5030987;28;20053;-72
2022/09/30 10:52:25;;;;;;;0.10;0.10;;;17.90;99.90;;;;;;5025632;28;20042;-74
2022/09/30 10:54:55;;;;;;;0.25;0.25;;;17.70;99.90;;;;;;5027302;28;20049;-74
2022/09/30 10:57:24;;;;;;;0.10;0.10;;;17.80;99.90;;;;;;5023133;28;20076;-74
2022/09/30 10:59:53;;;;;;;0.10;0.10;;;18.10;99.90;;;;;;5029138;28;20045;-73
2022/09/30 11:02:27;;;;;;;0.00;0.00;;;18.20;99.90;;;;;;5028086;28;20265;-73
2022/09/30 11:05:06;;;;;;;0.00;0.00;;;18.10;99.90;;;;;;5030616;28;20049;-73
2022/09/30 11:08:09;;;;;;;0.00;0.00;;;17.90;99.90;;;;;;5029828;28;20045;-72
2022/09/30 11:10:41;;;;;;;0.32;0.32;;;17.80;99.90;;;;;;5029141;28;20045;-72
2022/09/30 11:13:13;;;;;;;0.08;0.08;;;18.10;99.90;;;;;;5038480;28;20505;-73
2022/09/30 11:16:16;;;;;;;0.00;0.00;;;18.30;99.90;;;;;;5028157;28;20129;-72
2022/09/30 11:19:16;;;;;;;0.13;0.13;;;18.40;99.90;;;;;;5020286;28;20065;-73
2022/09/30 11:21:51;;;;;;;0.00;0.00;;;18.50;99.90;;;;;;5010249;28;20478;-73
2022/09/30 11:24:25;;;;;;;0.00;0.00;;;18.50;99.90;;;;;;5019760;28;20067;-72
2022/09/30 11:27:02;;;;;;;0.10;0.10;;;18.60;99.90;;;;;;5028197;28;20132;-73
2022/09/30 11:29:31;;;;;;;0.00;0.00;;;18.80;99.90;;;;;;5026883;28;20052;-72
2022/09/30 11:32:26;;;;;;;0.10;0.10;;;18.90;99.90;;;;;;5031313;28;20053;-73
2022/09/30 11:35:03;;;;;;;0.10;0.10;;;19.20;99.90;;;;;;5038385;28;20070;-73
2022/09/30 11:37:52;;;;;;;0.00;0.00;;;19.30;99.90;;;;;;5041879;28;20052;-72
2022/09/30 11:40:33;;;;;;;0.00;0.00;;;19.20;99.90;;;;;;5035230;28;20050;-73
2022/09/30 11:43:07;;;;;;;0.00;0.00;;;19.30;99.90;;;;;;5029608;28;20184;-73
2022/09/30 11:46:00;;;;;;;6.03;1.45;;;19.30;99.90;;;;;;5032849;28;20111;-73
2022/09/30 11:48:45;;;;;;;;;;;19.30;99.90;;;;;;5032758;28;20392;-74
2022/09/30 11:51:43;;;;;;;0.00;0.00;;;19.10;99.90;;;;;;5011083;28;19922;-74
2022/09/30 11:54:30;;;;;;;0.10;0.10;;;18.80;99.90;;;;;;5008318;28;20168;-78
2022/09/30 11:57:33;;;;;;;0.00;0.00;;;19.20;99.90;;;;;;5019992;28;20045;-74
2022/09/30 12:00:11;;;;;;;0.20;0.20;;;19.20;99.90;;;;;;5050624;28;20049;-74
2022/09/30 12:02:42;;;;;;;0.00;0.00;;;19.50;99.90;;;;;;5052606;28;20505;-73
2022/09/30 12:05:17;;;;;;;0.10;0.10;;;19.50;99.90;;;;;;5034128;28;20128;-73
2022/09/30 12:07:53;;;;;;;0.13;0.13;;;19.60;99.90;;;;;;5031031;28;20049;-74
2022/09/30 12:10:24;;;;;;;0.00;0.00;;;19.50;99.90;;;;;;5043657;28;20052;-75
2022/09/30 12:13:00;;;;;;;0.10;0.10;;;19.70;99.90;;;;;;5051899;28;20053;-74
2022/09/30 12:15:27;;;;;;;0.00;0.00;;;19.80;99.90;;;;;;5034277;28;20493;-75
2022/09/30 12:18:08;;;;;;;0.25;0.25;;;20.10;99.90;;;;;;5052582;28;20041;-75
2022/09/30 12:20:56;;;;;;;0.10;0.10;;;20.30;99.90;;;;;;5047849;28;20075;-74
2022/09/30 12:23:32;;;;;;;0.10;0.10;;;20.40;99.90;;;;;;5030394;28;20050;-74
2022/09/30 12:26:00;;;;;;;0.00;0.00;;;20.70;99.90;;;;;;5044581;28;20037;-75
2022/09/30 12:31:37;;;;;;;0.00;0.00;;;20.80;99.90;;;;;;5025324;28;20049;-74
2022/09/30 12:34:35;;;;;;;0.00;0.00;;;20.60;99.90;;;;;;5039933;28;20080;-74
2022/09/30 12:37:39;;;;;;;0.00;0.00;;;20.70;99.90;;;;;;5023646;28;20045;-73
2022/09/30 12:40:23;;;;;;;0.00;0.00;;;21.10;99.90;;;;;;5029037;28;20053;-74
2022/09/30 12:43:13;;;;;;;0.50;0.35;;;21.20;99.90;;;;;;5031001;28;20452;-74
2022/09/30 12:46:01;;;;;;;0.00;0.00;;;21.40;99.90;;;;;;5027341;28;20497;-73
2022/09/30 12:48:39;;;;;;;0.00;0.00;;;21.60;99.90;;;;;;5027538;28;20050;-73
2022/09/30 12:51:06;;;;;;;0.00;0.00;;;21.50;99.90;;;;;;5027971;28;20120;-74
2022/09/30 12:53:37;;;;;;;0.00;0.00;;;21.50;99.90;;;;;;5029728;28;20260;-74
2022/09/30 12:56:05;;;;;;;0.00;0.00;;;21.40;99.90;;;;;;5029992;28;20608;-74
2022/09/30 12:58:42;;;;;;;0.20;0.20;;;21.50;99.90;;;;;;5029690;28;20045;-74
2022/09/30 13:01:15;;;;;;;0.00;0.00;;;21.40;99.90;;;;;;5047576;28;20140;-74
2022/09/30 13:04:08;;;;;;;0.00;0.00;;;21.20;99.90;;;;;;5043961;28;20528;-74
2022/09/30 13:06:46;;;;;;;0.00;0.00;;;21.60;99.90;;;;;;5032315;28;20397;-73
2022/09/30 13:09:15;;;;;;;1.00;0.90;;;21.50;99.90;;;;;;5048932;28;20059;-75
2022/09/30 13:11:54;;;;;;;0.10;0.10;;;21.60;99.90;;;;;;5048636;28;20652;-75
2022/09/30 13:14:39;;;;;;;0.28;0.28;;;21.60;99.90;;;;;;5039516;28;20049;-76
2022/09/30 13:17:07;;;;;;;1.65;0.50;;;21.40;99.90;;;;;;5027167;28;20057;-74
2022/09/30 13:19:53;;;;;;;0.08;0.08;;;21.50;99.90;;;;;;5029277;28;20048;-75
2022/09/30 13:22:28;;;;;;;0.08;0.08;;;21.30;99.90;;;;;;5026950;28;20497;-74
2022/09/30 13:24:56;;;;;;;0.00;0.00;;;21.40;99.90;;;;;;5033302;28;20489;-76
2022/09/30 13:27:50;;;;;;;0.00;0.00;;;21.20;99.90;;;;;;5048931;28;20106;-76
2022/09/30 13:30:16;;;;;;;0.00;0.00;;;21.10;99.90;;;;;;5048472;28;20396;-76
2022/09/30 13:32:49;;;;;;;0.00;0.00;;;21.30;99.90;;;;;;5046509;28;20041;-75
2022/09/30 13:35:33;;;;;;;0.25;0.20;;;21.20;99.90;;;;;;5027815;28;20038;-76